Time;durP1;ratioP1;P1;durP2;ratioP2;P2;SDS_P1;SDS_P2;PMS_P1;PMS_P2;Temp;Humidity;BMP_temperature;BMP_pressure;BME280_temperature;BME280_humidity;BME280_pressure;Samples;Min_cycle;Max_cycle;Signal;HPM_P1;HPM_P2
2023/02/18 00:00:23;;;;;;;0.40;0.20;;;12.40;99.90;;;;;;5075974;28;20431;-61
2023/02/18 00:02:51;;;;;;;0.50;0.30;;;12.40;99.90;;;;;;5075075;28;20571;-61
2023/02/18 00:05:18;;;;;;;0.43;0.20;;;12.40;99.90;;;;;;5075440;28;20434;-61
2023/02/18 00:07:54;;;;;;;0.50;0.20;;;12.30;99.90;;;;;;5074699;28;20416;-60
2023/02/18 00:10:21;;;;;;;0.80;0.20;;;12.20;99.90;;;;;;5075102;28;20886;-61
2023/02/18 00:12:48;;;;;;;0.60;0.30;;;12.20;99.90;;;;;;5075847;28;20430;-61
2023/02/18 00:15:15;;;;;;;0.90;0.20;;;12.30;99.90;;;;;;5075348;28;20427;-61
2023/02/18 00:17:44;;;;;;;0.40;0.20;;;12.30;99.90;;;;;;5075544;28;20723;-60
2023/02/18 00:20:12;;;;;;;0.50;0.20;;;12.20;99.90;;;;;;5074830;28;20934;-62
2023/02/18 00:22:39;;;;;;;0.50;0.25;;;12.20;99.90;;;;;;5074493;28;20411;-60
2023/02/18 00:25:07;;;;;;;0.40;0.20;;;12.20;99.90;;;;;;5075300;28;20868;-60
2023/02/18 00:27:34;;;;;;;0.40;0.20;;;12.20;99.90;;;;;;5075545;28;20420;-60
2023/02/18 00:30:02;;;;;;;0.40;0.20;;;12.20;99.90;;;;;;5075104;28;20427;-60
2023/02/18 00:32:30;;;;;;;0.43;0.20;;;12.20;99.90;;;;;;5075655;28;20416;-61
2023/02/18 00:34:58;;;;;;;0.60;0.20;;;12.20;99.90;;;;;;5075939;28;20439;-61
2023/02/18 00:37:26;;;;;;;0.40;0.20;;;12.20;99.90;;;;;;5075468;28;20432;-59
2023/02/18 00:39:53;;;;;;;0.50;0.20;;;12.20;99.90;;;;;;5074259;28;20420;-61
2023/02/18 00:42:20;;;;;;;0.85;0.20;;;12.20;99.90;;;;;;5074089;28;20419;-60
2023/02/18 00:44:48;;;;;;;0.40;0.20;;;12.20;99.90;;;;;;5073480;28;20426;-59
2023/02/18 00:47:15;;;;;;;0.40;0.20;;;12.20;99.90;;;;;;5075056;28;20419;-60
2023/02/18 00:49:42;;;;;;;0.40;0.20;;;12.30;99.90;;;;;;5075837;28;20854;-59
2023/02/18 00:52:10;;;;;;;0.40;0.20;;;12.20;99.90;;;;;;5075557;28;20486;-59
2023/02/18 00:54:37;;;;;;;0.40;0.20;;;12.20;99.90;;;;;;5075462;28;20716;-60
2023/02/18 00:57:04;;;;;;;0.40;0.20;;;12.20;99.90;;;;;;5075165;28;20431;-62
2023/02/18 00:59:31;;;;;;;0.40;0.20;;;12.20;99.90;;;;;;5074340;28;20470;-61
2023/02/18 01:01:58;;;;;;;0.40;0.20;;;12.20;99.90;;;;;;5074912;28;20419;-61
2023/02/18 01:04:26;;;;;;;0.40;0.20;;;12.20;99.90;;;;;;5075099;28;20430;-60
2023/02/18 01:06:53;;;;;;;0.43;0.20;;;12.20;99.90;;;;;;5075271;28;20819;-61
2023/02/18 01:09:24;;;;;;;0.30;0.20;;;12.20;99.90;;;;;;5074084;28;20431;-60
2023/02/18 01:11:51;;;;;;;0.47;0.20;;;12.20;99.90;;;;;;5074255;28;20700;-60
2023/02/18 01:14:20;;;;;;;0.40;0.20;;;12.20;99.90;;;;;;5074133;28;20427;-61
2023/02/18 01:16:59;;;;;;;0.50;0.20;;;12.20;99.90;;;;;;5074908;28;20428;-59
2023/02/18 01:19:26;;;;;;;0.40;0.20;;;12.20;99.90;;;;;;5073059;28;20423;-60
2023/02/18 01:21:53;;;;;;;0.43;0.30;;;12.20;99.90;;;;;;5074020;28;20423;-58
2023/02/18 01:24:22;;;;;;;0.50;0.30;;;12.20;99.90;;;;;;5075041;28;20434;-60
2023/02/18 01:26:49;;;;;;;0.40;0.20;;;12.10;99.90;;;;;;5075034;28;20419;-59
2023/02/18 01:29:16;;;;;;;0.75;0.30;;;12.20;99.90;;;;;;5074912;28;20446;-61
2023/02/18 01:31:43;;;;;;;0.50;0.30;;;12.10;99.90;;;;;;5074736;28;20736;-60
2023/02/18 01:34:10;;;;;;;0.40;0.20;;;12.10;99.90;;;;;;5074995;28;20431;-61
2023/02/18 01:36:37;;;;;;;0.50;0.25;;;12.10;99.90;;;;;;5073886;28;20432;-60
2023/02/18 01:39:05;;;;;;;0.40;0.20;;;12.00;99.90;;;;;;5074438;28;20432;-61
2023/02/18 01:41:34;;;;;;;0.50;0.30;;;12.00;99.90;;;;;;5074273;28;20423;-59
2023/02/18 01:44:12;;;;;;;0.40;0.20;;;12.00;99.90;;;;;;5074492;28;20426;-60
2023/02/18 01:46:39;;;;;;;0.50;0.30;;;11.90;99.90;;;;;;5074930;28;20408;-60
2023/02/18 01:49:07;;;;;;;0.50;0.30;;;11.80;99.90;;;;;;5074701;28;20430;-59
2023/02/18 01:51:37;;;;;;;0.40;0.30;;;11.80;99.90;;;;;;5074682;28;20715;-61
2023/02/18 01:54:09;;;;;;;0.50;0.30;;;11.80;99.90;;;;;;5074496;28;20427;-60
2023/02/18 01:56:42;;;;;;;0.40;0.20;;;11.80;99.90;;;;;;5074601;28;20431;-59
2023/02/18 01:59:14;;;;;;;0.40;0.20;;;11.80;99.90;;;;;;5074382;28;20719;-60
2023/02/18 02:01:43;;;;;;;0.50;0.30;;;11.70;99.90;;;;;;5073867;28;20420;-60
2023/02/18 02:04:11;;;;;;;0.50;0.30;;;11.80;99.90;;;;;;5073992;28;20431;-59
2023/02/18 02:06:38;;;;;;;0.50;0.30;;;11.80;99.90;;;;;;5073394;28;20412;-59
2023/02/18 02:09:07;;;;;;;0.40;0.20;;;11.80;99.90;;;;;;5073029;28;20446;-60
2023/02/18 02:12:06;;;;;;;0.50;0.30;;;11.80;99.90;;;;;;5074555;28;20426;-60
2023/02/18 02:14:52;;;;;;;0.50;0.20;;;11.80;99.90;;;;;;5073216;28;20613;-59
2023/02/18 02:17:33;;;;;;;0.40;0.20;;;11.80;99.90;;;;;;5074468;28;20731;-60
2023/02/18 02:20:26;;;;;;;0.60;0.40;;;11.80;99.90;;;;;;5074018;28;20877;-61
2023/02/18 02:23:23;;;;;;;0.50;0.30;;;11.80;99.90;;;;;;5073801;28;20503;-60
2023/02/18 02:26:24;;;;;;;0.60;0.30;;;11.70;99.90;;;;;;5074682;28;20811;-60
2023/02/18 02:29:21;;;;;;;0.40;0.30;;;11.70;99.90;;;;;;5078005;28;20434;-60
2023/02/18 02:32:16;;;;;;;1.40;0.30;;;11.70;99.90;;;;;;5053928;28;20469;-59
2023/02/18 02:34:55;;;;;;;0.40;0.30;;;11.70;99.90;;;;;;5078505;28;20723;-58
2023/02/18 02:37:31;;;;;;;0.60;0.30;;;11.70;99.90;;;;;;5078280;28;20427;-58
2023/02/18 02:40:10;;;;;;;0.50;0.30;;;11.70;99.90;;;;;;5077681;28;20431;-59
2023/02/18 02:42:46;;;;;;;0.50;0.30;;;11.80;99.90;;;;;;5077409;28;20423;-60
2023/02/18 02:45:23;;;;;;;1.27;0.30;;;11.80;99.90;;;;;;5077058;28;20427;-60
2023/02/18 02:47:59;;;;;;;0.40;0.30;;;11.80;99.90;;;;;;5077920;28;20704;-60
2023/02/18 02:50:36;;;;;;;0.50;0.30;;;11.80;99.90;;;;;;5078103;28;20735;-60
2023/02/18 02:53:11;;;;;;;0.93;0.30;;;11.80;99.90;;;;;;5078181;28;20411;-60
2023/02/18 02:55:38;;;;;;;0.40;0.30;;;11.80;99.90;;;;;;5077589;28;20438;-60
2023/02/18 02:58:05;;;;;;;0.70;0.30;;;11.80;99.90;;;;;;5077403;28;20431;-60
2023/02/18 03:00:45;;;;;;;0.50;0.30;;;11.80;99.90;;;;;;5076873;28;20434;-60
2023/02/18 03:03:29;;;;;;;0.70;0.30;;;11.80;99.90;;;;;;5077590;28;20415;-60
2023/02/18 03:06:22;;;;;;;1.10;0.30;;;11.80;99.90;;;;;;5077915;28;20439;-59
2023/02/18 03:09:02;;;;;;;0.40;0.20;;;11.80;99.90;;;;;;5077269;28;20738;-60
2023/02/18 03:11:32;;;;;;;0.50;0.30;;;11.80;99.90;;;;;;5077094;28;20510;-60
2023/02/18 03:14:08;;;;;;;0.50;0.30;;;11.70;99.90;;;;;;5075048;28;20435;-60
2023/02/18 03:16:40;;;;;;;0.60;0.40;;;11.80;99.90;;;;;;5074921;28;20861;-60
2023/02/18 03:19:13;;;;;;;0.50;0.30;;;11.80;99.90;;;;;;5076830;28;20498;-59
2023/02/18 03:21:45;;;;;;;0.40;0.30;;;11.80;99.90;;;;;;5076128;28;20430;-60
2023/02/18 03:24:17;;;;;;;1.05;0.30;;;11.80;99.90;;;;;;5075819;28;20697;-60
2023/02/18 03:26:49;;;;;;;1.20;0.30;;;11.80;99.90;;;;;;5073484;28;20446;-58
2023/02/18 03:29:18;;;;;;;0.40;0.30;;;11.80;99.90;;;;;;5074621;28;20738;-60
2023/02/18 03:31:49;;;;;;;0.50;0.30;;;11.80;99.90;;;;;;5074918;28;20423;-59
2023/02/18 03:34:20;;;;;;;0.50;0.30;;;11.70;99.90;;;;;;5074795;28;20857;-60
2023/02/18 03:36:48;;;;;;;0.40;0.20;;;11.70;99.90;;;;;;5074455;28;20423;-60
2023/02/18 03:39:17;;;;;;;0.50;0.30;;;11.70;99.90;;;;;;5074369;28;20435;-62
2023/02/18 03:41:45;;;;;;;0.80;0.30;;;11.60;99.90;;;;;;5076395;28;20419;-60
2023/02/18 03:44:13;;;;;;;0.50;0.30;;;11.50;99.90;;;;;;5075319;28;20434;-60
2023/02/18 03:46:43;;;;;;;0.40;0.28;;;11.50;99.90;;;;;;5075742;28;20419;-59
2023/02/18 03:49:11;;;;;;;0.40;0.22;;;11.40;99.90;;;;;;5076265;28;20488;-59
2023/02/18 03:51:38;;;;;;;0.50;0.30;;;11.40;99.90;;;;;;5076702;28;20419;-59
2023/02/18 03:54:07;;;;;;;0.40;0.30;;;11.40;99.90;;;;;;5075654;28;20433;-60
2023/02/18 03:56:34;;;;;;;0.70;0.30;;;11.30;99.90;;;;;;5076827;28;20415;-59
2023/02/18 03:59:01;;;;;;;0.70;0.30;;;11.30;99.90;;;;;;5075254;28;20442;-59
2023/02/18 04:01:28;;;;;;;0.70;0.40;;;11.20;99.90;;;;;;5075930;28;20481;-59
2023/02/18 04:03:55;;;;;;;0.60;0.30;;;11.20;99.90;;;;;;5076329;28;20423;-60
2023/02/18 04:06:23;;;;;;;0.40;0.30;;;11.20;99.90;;;;;;5075393;28;20419;-59
2023/02/18 04:08:51;;;;;;;0.50;0.30;;;11.20;99.90;;;;;;5075531;28;20714;-59
2023/02/18 04:11:19;;;;;;;0.40;0.20;;;11.20;99.90;;;;;;5075576;28;20416;-59
2023/02/18 04:13:46;;;;;;;0.50;0.30;;;11.20;99.90;;;;;;5075801;28;20715;-60
2023/02/18 04:16:14;;;;;;;0.60;0.30;;;11.20;99.90;;;;;;5075696;28;20427;-60
2023/02/18 04:18:41;;;;;;;0.50;0.30;;;11.20;99.90;;;;;;5076206;28;20453;-61
2023/02/18 04:21:08;;;;;;;0.68;0.40;;;11.20;99.90;;;;;;5075975;28;20705;-60
2023/02/18 04:23:35;;;;;;;0.70;0.40;;;11.30;99.90;;;;;;5075317;28;20424;-60
2023/02/18 04:26:03;;;;;;;0.60;0.30;;;11.30;99.90;;;;;;5075605;28;20423;-60
2023/02/18 04:28:31;;;;;;;0.63;0.40;;;11.30;99.90;;;;;;5075322;28;20412;-60
2023/02/18 04:30:58;;;;;;;0.70;0.30;;;11.30;99.90;;;;;;5075753;28;20732;-60
2023/02/18 04:33:25;;;;;;;1.30;0.30;;;11.20;99.90;;;;;;5074215;28;20426;-59
2023/02/18 04:35:52;;;;;;;0.50;0.30;;;11.20;99.90;;;;;;5075434;28;20426;-60
2023/02/18 04:38:20;;;;;;;0.50;0.30;;;11.20;99.90;;;;;;5074643;28;20435;-60
2023/02/18 04:40:47;;;;;;;0.63;0.40;;;11.10;99.90;;;;;;5074989;28;20431;-61
2023/02/18 04:43:14;;;;;;;0.50;0.30;;;11.00;99.90;;;;;;5073795;28;20424;-60
2023/02/18 04:45:43;;;;;;;0.60;0.35;;;11.00;99.90;;;;;;5073902;28;20518;-60
2023/02/18 04:48:10;;;;;;;0.63;0.30;;;10.90;99.90;;;;;;5074737;28;20416;-59
2023/02/18 04:50:37;;;;;;;0.50;0.30;;;10.90;99.90;;;;;;5074309;28;20524;-60
2023/02/18 04:53:04;;;;;;;0.50;0.30;;;10.90;99.90;;;;;;5074089;28;20430;-60
2023/02/18 04:55:31;;;;;;;0.45;0.30;;;10.90;99.90;;;;;;5074776;28;20426;-60
2023/02/18 04:57:59;;;;;;;0.50;0.30;;;10.90;99.90;;;;;;5074827;28;20428;-60
2023/02/18 05:00:27;;;;;;;0.60;0.30;;;10.90;99.90;;;;;;5075185;28;20877;-60
2023/02/18 05:02:56;;;;;;;0.50;0.30;;;10.90;99.90;;;;;;5075040;28;20435;-60
2023/02/18 05:05:23;;;;;;;0.50;0.30;;;10.80;99.90;;;;;;5075062;28;20434;-66
2023/02/18 05:07:50;;;;;;;0.50;0.30;;;10.80;99.90;;;;;;5075149;28;20688;-61
2023/02/18 05:10:18;;;;;;;0.50;0.30;;;10.80;99.90;;;;;;5075262;28;20835;-61
2023/02/18 05:12:45;;;;;;;0.50;0.30;;;10.70;99.90;;;;;;5075152;28;20422;-60
2023/02/18 05:15:12;;;;;;;0.50;0.30;;;10.70;99.90;;;;;;5074659;28;20442;-60
2023/02/18 05:17:39;;;;;;;0.50;0.30;;;10.70;99.90;;;;;;5075242;28;20431;-61
2023/02/18 05:20:09;;;;;;;0.80;0.30;;;10.70;99.90;;;;;;5074616;28;20424;-61
2023/02/18 05:22:36;;;;;;;1.13;0.38;;;10.70;99.90;;;;;;5074162;28;20423;-61
2023/02/18 05:25:04;;;;;;;0.80;0.30;;;10.70;99.90;;;;;;5075035;28;20757;-60
2023/02/18 05:27:31;;;;;;;0.90;0.30;;;10.70;99.90;;;;;;5074449;28;20408;-61
2023/02/18 05:29:58;;;;;;;0.50;0.30;;;10.60;99.90;;;;;;5074477;28;20731;-61
2023/02/18 05:32:25;;;;;;;0.70;0.33;;;10.60;99.90;;;;;;5074976;28;20484;-61
2023/02/18 05:34:52;;;;;;;0.60;0.40;;;10.50;99.90;;;;;;5074675;28;20435;-59
2023/02/18 05:37:21;;;;;;;0.52;0.30;;;10.40;99.90;;;;;;5073897;28;20427;-59
2023/02/18 05:39:48;;;;;;;0.40;0.30;;;10.40;99.90;;;;;;5074421;28;20423;-60
2023/02/18 05:42:15;;;;;;;0.50;0.30;;;10.40;99.90;;;;;;5073820;28;20708;-60
2023/02/18 05:44:42;;;;;;;0.50;0.30;;;10.40;99.90;;;;;;5074439;28;20427;-60
2023/02/18 05:47:11;;;;;;;0.80;0.30;;;10.40;99.90;;;;;;5074485;28;20432;-61
2023/02/18 05:49:40;;;;;;;0.50;0.30;;;10.30;99.90;;;;;;5074370;28;20708;-60
2023/02/18 05:52:08;;;;;;;0.60;0.30;;;10.30;99.90;;;;;;5074834;28;20442;-61
2023/02/18 05:54:37;;;;;;;0.50;0.30;;;10.40;99.90;;;;;;5074306;28;20727;-60
2023/02/18 05:57:05;;;;;;;0.50;0.30;;;10.40;99.90;;;;;;5073877;28;20432;-52
2023/02/18 05:59:32;;;;;;;0.50;0.30;;;10.40;99.90;;;;;;5073483;28;20870;-57
2023/02/18 06:02:00;;;;;;;0.77;0.30;;;10.50;99.90;;;;;;5078838;28;20509;-59
2023/02/18 06:04:28;;;;;;;0.60;0.30;;;10.50;99.90;;;;;;5081699;28;20415;-61
2023/02/18 06:06:55;;;;;;;0.50;0.30;;;10.50;99.90;;;;;;5081562;28;20420;-59
2023/02/18 06:09:23;;;;;;;0.50;0.30;;;10.60;99.90;;;;;;5079277;28;20433;-60
2023/02/18 06:11:51;;;;;;;0.50;0.30;;;10.60;99.90;;;;;;5079431;28;20442;-60
2023/02/18 06:14:18;;;;;;;0.60;0.20;;;10.60;99.90;;;;;;5081453;28;20703;-58
2023/02/18 06:16:46;;;;;;;0.70;0.30;;;10.60;99.90;;;;;;5081165;28;20415;-60
2023/02/18 06:19:13;;;;;;;0.65;0.30;;;10.60;99.90;;;;;;5081415;28;20708;-60
2023/02/18 06:21:40;;;;;;;0.60;0.40;;;10.70;99.90;;;;;;5080841;28;20419;-61
2023/02/18 06:24:07;;;;;;;0.75;0.40;;;10.70;99.90;;;;;;5079993;28;20423;-60
2023/02/18 06:26:34;;;;;;;0.50;0.30;;;10.60;99.90;;;;;;5079173;28;20423;-60
2023/02/18 06:29:04;;;;;;;0.50;0.30;;;10.60;99.90;;;;;;5079042;28;20485;-60
2023/02/18 06:31:31;;;;;;;0.60;0.30;;;10.60;99.90;;;;;;5078474;28;20416;-59
2023/02/18 06:33:58;;;;;;;1.00;0.40;;;10.60;99.90;;;;;;5080295;28;20445;-57
2023/02/18 06:36:25;;;;;;;0.60;0.30;;;10.60;99.90;;;;;;5078919;28;20419;-60
2023/02/18 06:38:53;;;;;;;0.50;0.30;;;10.60;99.90;;;;;;5079598;28;20842;-61
2023/02/18 06:41:20;;;;;;;0.50;0.30;;;10.70;99.90;;;;;;5079968;28;20423;-61
2023/02/18 06:43:47;;;;;;;0.50;0.30;;;10.80;99.90;;;;;;5080951;28;20426;-61
2023/02/18 06:46:16;;;;;;;0.50;0.30;;;10.80;99.90;;;;;;5079755;28;20412;-60
2023/02/18 06:48:43;;;;;;;0.60;0.40;;;10.90;99.90;;;;;;5078493;28;20430;-58
2023/02/18 06:51:10;;;;;;;0.70;0.30;;;10.90;99.90;;;;;;5078117;28;20423;-58
2023/02/18 06:53:37;;;;;;;0.55;0.30;;;11.00;99.90;;;;;;5076408;28;20431;-59
2023/02/18 06:56:05;;;;;;;0.50;0.30;;;11.10;99.90;;;;;;5076110;28;20434;-58
2023/02/18 06:58:32;;;;;;;0.70;0.40;;;11.10;99.90;;;;;;5064657;28;20441;-58
2023/02/18 07:01:00;;;;;;;0.57;0.30;;;11.10;99.90;;;;;;5057325;28;20847;-59
2023/02/18 07:03:28;;;;;;;0.70;0.40;;;11.20;99.90;;;;;;5057969;28;20431;-59
2023/02/18 07:05:55;;;;;;;0.70;0.30;;;11.20;99.90;;;;;;5059026;28;20849;-54
2023/02/18 07:08:22;;;;;;;0.45;0.30;;;11.30;99.90;;;;;;5078887;28;20438;-54
2023/02/18 07:10:50;;;;;;;0.40;0.22;;;11.30;99.90;;;;;;5077611;28;20445;-56
2023/02/18 07:13:17;;;;;;;0.85;0.30;;;11.40;99.90;;;;;;5074506;28;20436;-57
2023/02/18 07:15:44;;;;;;;0.50;0.30;;;11.40;99.90;;;;;;5075824;28;20434;-56
2023/02/18 07:18:11;;;;;;;0.50;0.30;;;11.40;99.90;;;;;;5074862;28;20443;-57
2023/02/18 07:20:40;;;;;;;1.10;0.40;;;11.50;99.90;;;;;;5076222;28;20427;-55
2023/02/18 07:23:07;;;;;;;0.60;0.40;;;11.50;99.90;;;;;;5076330;28;20438;-56
2023/02/18 07:25:34;;;;;;;0.50;0.30;;;11.50;99.90;;;;;;5077014;28;20447;-56
2023/02/18 07:28:01;;;;;;;0.70;0.20;;;11.50;99.90;;;;;;5076800;28;20862;-57
2023/02/18 07:30:28;;;;;;;0.50;0.30;;;11.60;99.90;;;;;;5076855;28;20715;-56
2023/02/18 07:32:55;;;;;;;0.65;0.30;;;11.60;99.90;;;;;;5076345;28;20431;-57
2023/02/18 07:35:22;;;;;;;0.60;0.30;;;11.70;99.90;;;;;;5075272;28;20419;-58
2023/02/18 07:37:51;;;;;;;0.50;0.40;;;11.70;99.90;;;;;;5075811;28;20432;-54
2023/02/18 07:40:21;;;;;;;0.50;0.30;;;11.70;99.90;;;;;;5075606;28;20863;-58
2023/02/18 07:42:49;;;;;;;0.50;0.30;;;11.70;99.90;;;;;;5075635;28;20900;-59
2023/02/18 07:45:16;;;;;;;1.20;0.30;;;11.70;99.90;;;;;;5073450;28;20771;-58
2023/02/18 07:47:44;;;;;;;0.60;0.32;;;11.80;99.90;;;;;;5074256;28;20435;-58
2023/02/18 07:50:11;;;;;;;0.50;0.30;;;11.80;99.90;;;;;;5074284;28;20459;-56
2023/02/18 07:52:38;;;;;;;0.50;0.40;;;11.80;99.90;;;;;;5073184;28;20438;-58
2023/02/18 07:55:08;;;;;;;0.80;0.40;;;11.90;99.90;;;;;;5072800;28;20431;-56
2023/02/18 07:57:56;;;;;;;0.70;0.30;;;11.90;99.90;;;;;;5074374;28;20431;-54
2023/02/18 08:00:23;;;;;;;0.50;0.30;;;11.90;99.90;;;;;;5073938;28;20514;-58
2023/02/18 08:02:50;;;;;;;0.65;0.40;;;12.00;99.90;;;;;;5075932;28;20835;-58
2023/02/18 08:05:17;;;;;;;0.57;0.40;;;12.10;99.90;;;;;;5074396;28;21005;-57
2023/02/18 08:07:45;;;;;;;0.50;0.30;;;12.10;99.90;;;;;;5073374;28;20432;-59
2023/02/18 08:10:13;;;;;;;0.50;0.30;;;12.10;99.90;;;;;;5074594;28;20419;-58
2023/02/18 08:12:40;;;;;;;0.60;0.40;;;12.10;99.90;;;;;;5073274;28;20896;-58
2023/02/18 08:15:08;;;;;;;0.50;0.30;;;12.10;99.90;;;;;;5073867;28;20863;-57
2023/02/18 08:17:35;;;;;;;0.60;0.30;;;12.20;99.90;;;;;;5075178;28;20428;-57
2023/02/18 08:20:02;;;;;;;0.70;0.40;;;12.20;99.90;;;;;;5075305;28;20438;-57
2023/02/18 08:22:29;;;;;;;0.52;0.30;;;12.20;99.90;;;;;;5073756;28;20434;-57
2023/02/18 08:24:56;;;;;;;0.57;0.30;;;12.20;99.90;;;;;;5073910;28;20942;-56
2023/02/18 08:27:25;;;;;;;0.60;0.30;;;12.30;99.90;;;;;;5073940;28;20442;-58
2023/02/18 08:29:53;;;;;;;0.60;0.40;;;12.30;99.90;;;;;;5072299;28;20420;-56
2023/02/18 08:32:20;;;;;;;0.70;0.40;;;12.40;99.90;;;;;;5074435;28;20435;-58
2023/02/18 08:34:47;;;;;;;0.90;0.40;;;12.50;99.90;;;;;;5071988;28;20423;-60
2023/02/18 08:37:14;;;;;;;0.60;0.38;;;12.50;99.90;;;;;;5073667;28;20719;-59
2023/02/18 08:39:41;;;;;;;0.63;0.30;;;12.60;99.90;;;;;;5073540;28;20431;-60
2023/02/18 08:42:08;;;;;;;0.60;0.30;;;12.70;99.90;;;;;;5073601;28;20439;-59
2023/02/18 08:44:37;;;;;;;0.85;0.30;;;12.80;99.90;;;;;;5074111;28;20419;-60
2023/02/18 08:47:04;;;;;;;0.60;0.30;;;12.80;99.90;;;;;;5073274;28;20434;-60
2023/02/18 08:49:31;;;;;;;0.88;0.40;;;12.80;99.90;;;;;;5073171;28;20455;-62
2023/02/18 08:51:59;;;;;;;0.60;0.30;;;12.80;99.90;;;;;;5071563;28;20435;-61
2023/02/18 08:54:26;;;;;;;0.50;0.30;;;12.90;99.90;;;;;;5073890;28;20432;-61
2023/02/18 08:56:56;;;;;;;0.73;0.30;;;12.90;99.90;;;;;;5072857;28;20450;-61
2023/02/18 08:59:23;;;;;;;0.50;0.30;;;13.00;99.90;;;;;;5074216;28;20892;-61
2023/02/18 09:01:52;;;;;;;0.80;0.30;;;13.10;99.90;;;;;;5073964;28;20430;-60
2023/02/18 09:04:20;;;;;;;0.60;0.40;;;13.10;99.90;;;;;;5072073;28;20426;-61
2023/02/18 09:06:48;;;;;;;0.50;0.30;;;13.20;99.90;;;;;;5071413;28;20454;-61
2023/02/18 09:09:16;;;;;;;0.50;0.30;;;13.20;99.90;;;;;;5073450;28;20424;-60
2023/02/18 09:11:43;;;;;;;1.50;0.40;;;13.20;99.90;;;;;;5072713;28;20427;-61
2023/02/18 09:14:11;;;;;;;0.52;0.30;;;13.30;99.90;;;;;;5073917;28;20454;-61
2023/02/18 09:16:39;;;;;;;1.60;0.30;;;13.30;99.90;;;;;;5071972;28;20427;-61
2023/02/18 09:29:02;;;;;;;0.50;0.30;;;13.70;99.90;;;;;;5081024;28;20467;-60
2023/02/18 09:31:29;;;;;;;0.50;0.30;;;13.80;99.90;;;;;;5094078;28;20490;-60
2023/02/18 09:33:58;;;;;;;0.50;0.20;;;13.80;99.90;;;;;;5092564;28;20440;-60
2023/02/18 09:36:26;;;;;;;0.50;0.30;;;13.80;99.90;;;;;;5089299;28;20452;-60
2023/02/18 09:38:54;;;;;;;0.40;0.20;;;13.80;99.90;;;;;;5091142;28;20427;-61
2023/02/18 09:41:30;;;;;;;0.60;0.30;;;13.70;99.90;;;;;;5090612;28;20421;-60
2023/02/18 09:44:00;;;;;;;0.50;0.30;;;13.60;99.90;;;;;;5089220;28;20845;-60
2023/02/18 09:46:33;;;;;;;0.60;0.20;;;13.60;99.90;;;;;;5092496;28;20460;-61
2023/02/18 09:49:02;;;;;;;0.50;0.30;;;13.70;99.90;;;;;;5092692;28;20541;-60
2023/02/18 09:51:30;;;;;;;2.07;1.50;;;13.80;99.90;;;;;;5093440;28;20414;-59
2023/02/18 09:53:56;;;;;;;0.60;0.30;;;13.90;99.90;;;;;;5093649;28;20438;-62
2023/02/18 09:56:29;;;;;;;0.50;0.30;;;13.90;99.90;;;;;;5092736;28;20430;-60
2023/02/18 09:58:58;;;;;;;0.45;0.30;;;13.80;99.90;;;;;;5093858;28;20429;-61
2023/02/18 10:01:32;;;;;;;0.50;0.30;;;13.80;99.90;;;;;;5091411;28;20417;-60
2023/02/18 10:04:10;;;;;;;0.60;0.30;;;13.90;99.90;;;;;;5091194;28;20432;-60
2023/02/18 10:06:36;;;;;;;0.60;0.32;;;14.00;99.90;;;;;;5091589;28;20421;-58
2023/02/18 10:09:08;;;;;;;0.50;0.20;;;14.10;99.90;;;;;;5090167;28;20426;-59
2023/02/18 10:11:40;;;;;;;0.50;0.30;;;14.00;99.90;;;;;;5090590;28;20475;-59
2023/02/18 10:14:12;;;;;;;0.40;0.20;;;14.00;99.90;;;;;;5092138;28;20478;-59
2023/02/18 10:16:42;;;;;;;0.50;0.30;;;14.00;99.90;;;;;;5092530;28;20814;-61
2023/02/18 10:19:24;;;;;;;0.60;0.30;;;14.00;99.90;;;;;;5092474;28;20779;-60
2023/02/18 10:21:53;;;;;;;0.50;0.28;;;14.10;99.90;;;;;;5092542;28;20529;-60
2023/02/18 10:24:28;;;;;;;0.50;0.30;;;14.00;99.90;;;;;;5092796;28;20524;-60
2023/02/18 10:26:56;;;;;;;2.90;0.30;;;14.00;99.90;;;;;;5071909;28;20892;-60
2023/02/18 10:29:24;;;;;;;0.40;0.20;;;14.10;99.90;;;;;;5069751;28;20424;-61
2023/02/18 10:31:57;;;;;;;0.65;0.30;;;14.20;99.90;;;;;;5092272;28;20514;-61
2023/02/18 10:34:40;;;;;;;0.43;0.20;;;14.40;99.90;;;;;;5091053;28;20912;-60
2023/02/18 10:37:20;;;;;;;0.60;0.30;;;14.50;99.90;;;;;;5090471;28;20426;-60
2023/02/18 10:40:05;;;;;;;0.50;0.20;;;14.60;99.90;;;;;;5090649;28;20437;-60
2023/02/18 10:42:40;;;;;;;0.60;0.30;;;14.70;99.90;;;;;;5090031;28;20433;-60
2023/02/18 10:45:17;;;;;;;0.80;0.30;;;14.50;99.90;;;;;;5091305;28;20426;-61
2023/02/18 10:47:54;;;;;;;0.50;0.30;;;14.50;99.90;;;;;;5093502;28;20729;-61
2023/02/18 10:50:29;;;;;;;0.70;0.30;;;14.50;99.90;;;;;;5087212;28;20852;-61
2023/02/18 10:53:00;;;;;;;0.50;0.30;;;14.60;99.90;;;;;;5095072;28;20433;-61
2023/02/18 10:55:36;;;;;;;0.88;0.30;;;14.70;99.90;;;;;;5092367;28;20478;-62
2023/02/18 10:58:04;;;;;;;0.50;0.30;;;14.70;99.90;;;;;;5093171;28;20944;-60
2023/02/18 11:00:38;;;;;;;0.57;0.28;;;14.70;99.90;;;;;;5091587;28;20894;-59
2023/02/18 11:03:16;;;;;;;0.57;0.20;;;14.80;99.90;;;;;;5092515;28;20434;-61
2023/02/18 11:05:45;;;;;;;0.40;0.27;;;14.80;99.90;;;;;;5093982;28;20417;-61
2023/02/18 11:08:20;;;;;;;0.50;0.30;;;14.60;99.90;;;;;;5093830;28;20434;-60
2023/02/18 11:10:49;;;;;;;0.60;0.30;;;14.60;99.90;;;;;;5093355;28;20483;-60
2023/02/18 11:13:25;;;;;;;0.50;0.30;;;14.50;99.90;;;;;;5094561;28;20429;-60
2023/02/18 11:16:00;;;;;;;0.68;0.30;;;14.70;99.90;;;;;;5094738;28;20868;-60
2023/02/18 11:18:37;;;;;;;1.30;0.30;;;14.70;99.90;;;;;;5094823;28;20560;-60
2023/02/18 11:21:07;;;;;;;0.50;0.30;;;14.60;99.90;;;;;;5095164;28;20481;-60
2023/02/18 11:23:47;;;;;;;0.70;0.30;;;14.50;99.90;;;;;;5093930;28;20433;-60
2023/02/18 11:26:17;;;;;;;0.40;0.20;;;14.50;99.90;;;;;;5094947;28;20430;-60
2023/02/18 11:28:47;;;;;;;0.40;0.20;;;14.70;99.90;;;;;;5094224;28;20503;-61
2023/02/18 11:31:25;;;;;;;0.50;0.20;;;14.70;99.90;;;;;;5092604;28;20570;-60
2023/02/18 11:33:57;;;;;;;0.90;0.20;;;14.90;99.90;;;;;;5084321;28;20491;-60
2023/02/18 11:36:27;;;;;;;0.50;0.28;;;15.00;99.90;;;;;;5092331;28;20539;-60
2023/02/18 11:38:57;;;;;;;0.30;0.20;;;15.00;99.90;;;;;;5095262;28;20430;-61
2023/02/18 11:41:33;;;;;;;0.50;0.20;;;15.10;99.90;;;;;;5096188;28;20426;-61
2023/02/18 11:44:02;;;;;;;0.50;0.30;;;15.20;99.90;;;;;;5094800;28;20441;-61
2023/02/18 11:46:29;;;;;;;0.60;0.30;;;15.30;99.90;;;;;;5094853;28;20426;-60
2023/02/18 11:49:19;;;;;;;0.50;0.20;;;15.40;99.90;;;;;;5092548;28;20436;-61
2023/02/18 11:51:48;;;;;;;0.70;0.30;;;15.30;99.90;;;;;;5088372;28;20421;-60
2023/02/18 11:54:24;;;;;;;0.50;0.20;;;15.30;99.90;;;;;;5092866;28;20437;-60
2023/02/18 11:56:57;;;;;;;0.50;0.20;;;15.30;99.90;;;;;;5092765;28;20480;-60
2023/02/18 11:59:25;;;;;;;0.50;0.20;;;15.40;99.90;;;;;;5089725;28;20429;-61
2023/02/18 12:01:56;;;;;;;0.50;0.20;;;15.30;99.90;;;;;;5091483;28;20428;-59
2023/02/18 12:04:29;;;;;;;0.40;0.30;;;15.20;99.90;;;;;;5090022;28;20430;-59
2023/02/18 12:07:15;;;;;;;0.40;0.30;;;15.20;99.90;;;;;;5090717;28;20426;-61
2023/02/18 12:09:47;;;;;;;0.40;0.20;;;15.40;99.90;;;;;;5089227;28;20853;-61
2023/02/18 12:12:17;;;;;;;0.50;0.20;;;15.50;99.90;;;;;;5083857;28;20418;-60
2023/02/18 12:14:45;;;;;;;0.80;0.30;;;15.60;99.90;;;;;;5089982;28;20429;-60
2023/02/18 12:17:26;;;;;;;1.00;0.30;;;15.60;99.90;;;;;;5091525;28;20429;-60
2023/02/18 12:20:31;;;;;;;0.50;0.20;;;15.70;99.90;;;;;;5089620;28;20438;-60
2023/02/18 12:23:06;;;;;;;0.40;0.20;;;15.80;99.90;;;;;;5089995;28;20434;-60
2023/02/18 12:25:40;;;;;;;0.40;0.20;;;15.90;99.90;;;;;;5089314;28;20434;-59
2023/02/18 12:28:30;;;;;;;1.00;0.30;;;15.80;99.90;;;;;;5090188;28;20437;-59
2023/02/18 12:31:21;;;;;;;0.52;0.30;;;15.60;99.90;;;;;;5088404;28;20522;-59
2023/02/18 12:34:04;;;;;;;0.40;0.20;;;15.90;99.90;;;;;;5090068;28;20502;-59
2023/02/18 12:36:48;;;;;;;0.70;0.30;;;16.10;99.90;;;;;;5083182;28;20716;-59
2023/02/18 12:39:30;;;;;;;1.40;0.30;;;16.10;99.90;;;;;;5092233;28;20445;-60
2023/02/18 12:42:24;;;;;;;1.25;0.30;;;16.00;99.90;;;;;;5088180;28;20444;-60
2023/02/18 12:45:05;;;;;;;0.40;0.20;;;16.00;99.90;;;;;;5091366;28;20433;-59
2023/02/18 12:47:50;;;;;;;1.00;0.40;;;15.90;99.90;;;;;;5091478;28;20482;-59
2023/02/18 12:50:42;;;;;;;0.50;0.30;;;15.60;99.90;;;;;;5089266;28;20441;-59
2023/02/18 12:53:26;;;;;;;0.60;0.30;;;15.60;99.90;;;;;;5093348;28;20434;-61
2023/02/18 12:56:06;;;;;;;0.50;0.30;;;15.50;99.90;;;;;;5094199;28;20483;-61
2023/02/18 12:58:50;;;;;;;1.00;0.40;;;15.40;99.90;;;;;;5093189;28;20437;-61
2023/02/18 13:01:39;;;;;;;0.63;0.30;;;15.60;99.90;;;;;;5093078;28;20532;-61
2023/02/18 13:04:27;;;;;;;0.50;0.30;;;15.60;99.90;;;;;;5090367;28;20632;-61
2023/02/18 13:07:13;;;;;;;0.60;0.40;;;15.60;99.90;;;;;;5088816;28;20479;-60
2023/02/18 13:09:58;;;;;;;0.50;0.30;;;15.50;99.90;;;;;;5092714;28;20550;-61
2023/02/18 13:12:31;;;;;;;0.60;0.35;;;15.50;99.90;;;;;;5091411;28;20516;-60
2023/02/18 13:15:03;;;;;;;1.00;0.40;;;15.50;99.90;;;;;;5092377;28;20508;-60
2023/02/18 13:17:35;;;;;;;0.65;0.40;;;15.30;99.90;;;;;;5091334;28;20524;-61